Time;durP1;ratioP1;P1;durP2;ratioP2;P2;SDS_P1;SDS_P2;PMS_P1;PMS_P2;Temp;Humidity;BMP_temperature;BMP_pressure;BME280_temperature;BME280_humidity;BME280_pressure;Samples;Min_cycle;Max_cycle;Signal;HPM_P1;HPM_P2
2021/07/11 00:00:14;;;;;;;6.63;4.28;;;;;;;18.85;66.60;96836.41;127931;1093;23534;-89
2021/07/11 00:03:06;;;;;;;5.93;4.60;;;;;;;18.87;66.52;96833.42;127889;1093;26328;-90
2021/07/11 00:05:37;;;;;;;5.93;4.90;;;;;;;18.65;66.41;96834.48;127860;1093;26644;-87
2021/07/11 00:08:09;;;;;;;4.85;4.15;;;;;;;18.33;67.13;96839.34;127862;1093;23653;-90
2021/07/11 00:10:41;;;;;;;4.65;3.95;;;;;;;18.10;67.59;96836.11;127900;1093;27070;-91
2021/07/11 00:13:12;;;;;;;4.47;4.03;;;;;;;18.08;68.05;96832.95;127922;1093;26102;-94
2021/07/11 00:15:44;;;;;;;5.53;4.33;;;;;;;18.05;68.21;96832.82;127902;1092;25219;-89
2021/07/11 00:18:15;;;;;;;5.45;4.35;;;;;;;17.94;68.78;96834.27;127838;1093;26495;-88
2021/07/11 00:20:47;;;;;;;6.43;5.23;;;;;;;17.84;69.15;96831.92;127892;1093;24725;-89
2021/07/11 00:23:18;;;;;;;7.28;4.73;;;;;;;17.76;69.55;96836.99;127903;1093;28841;-88
2021/07/11 00:25:50;;;;;;;5.00;4.23;;;;;;;17.76;69.48;96831.63;127845;1093;26308;-89
2021/07/11 00:28:21;;;;;;;5.70;4.83;;;;;;;17.86;69.78;96830.48;127882;1093;33359;-90
2021/07/11 00:30:52;;;;;;;6.88;4.90;;;;;;;17.90;70.02;96826.08;127863;1093;27135;-91
2021/07/11 00:33:24;;;;;;;6.00;5.08;;;;;;;17.92;70.05;96828.44;127850;1093;24104;-87
2021/07/11 00:35:55;;;;;;;8.38;6.03;;;;;;;17.97;70.22;96825.57;127863;1093;24327;-92
2021/07/11 00:38:26;;;;;;;8.73;5.95;;;;;;;18.05;70.40;96830.14;127858;1093;25358;-92
2021/07/11 00:40:58;;;;;;;6.35;5.03;;;;;;;18.17;69.88;96837.52;127833;1093;29512;-90
2021/07/11 00:43:29;;;;;;;6.10;5.18;;;;;;;18.08;69.80;96832.95;127873;1093;23806;-89
2021/07/11 00:46:01;;;;;;;5.58;5.08;;;;;;;18.14;69.52;96833.56;127831;1093;24803;-95
2021/07/11 00:48:33;;;;;;;6.35;5.05;;;;;;;18.17;69.43;96827.58;127854;1093;26195;-90
2021/07/11 00:51:04;;;;;;;7.23;5.60;;;;;;;18.24;69.44;96833.22;127868;1093;25813;-91
2021/07/11 00:53:36;;;;;;;6.95;5.70;;;;;;;18.04;69.42;96833.93;127875;1092;24743;-89
2021/07/11 00:56:07;;;;;;;6.30;5.30;;;;;;;18.02;69.22;96825.42;127852;1093;24083;-88
2021/07/11 00:58:39;;;;;;;7.63;5.58;;;;;;;18.06;69.22;96824.45;127869;1093;29892;-87
2021/07/11 01:01:14;;;;;;;7.10;5.33;;;;;;;18.13;69.31;96826.62;127927;1093;26461;-89
2021/07/11 01:03:51;;;;;;;6.90;4.53;;;;;;;18.18;69.16;96826.46;127891;1093;22791;-88
2021/07/11 01:06:25;;;;;;;5.98;4.28;;;;;;;18.00;68.86;96830.30;127840;1093;23321;-89
2021/07/11 01:09:02;;;;;;;4.98;4.00;;;;;;;17.91;69.14;96832.23;127863;1093;25871;-90
2021/07/11 01:11:39;;;;;;;8.88;5.15;;;;;;;17.90;69.38;96828.77;127901;1093;24682;-90
2021/07/11 01:14:11;;;;;;;6.38;5.15;;;;;;;17.86;69.31;96830.48;127876;1093;22907;-89
2021/07/11 01:16:47;;;;;;;8.65;5.58;;;;;;;17.77;69.34;96827.84;127910;1093;26271;-89
2021/07/11 01:19:36;;;;;;;5.83;5.23;;;;;;;17.84;69.54;96830.02;127860;1093;26241;-89
2021/07/11 01:22:13;;;;;;;7.13;5.50;;;;;;;17.80;69.60;96821.05;127861;1093;31345;-89
2021/07/11 01:24:54;;;;;;;6.30;5.25;;;;;;;17.84;69.57;96824.66;127935;1093;24248;-89
2021/07/11 01:27:26;;;;;;;6.85;5.40;;;;;;;17.92;69.61;96818.50;127878;1093;24436;-90
2021/07/11 01:29:59;;;;;;;6.10;5.20;;;;;;;17.93;69.58;96816.59;127827;1093;25180;-90
2021/07/11 01:32:34;;;;;;;7.05;5.60;;;;;;;17.93;69.53;96816.59;127851;1093;23531;-88
2021/07/11 01:35:07;;;;;;;6.95;6.00;;;;;;;17.78;69.21;96820.58;127881;1093;24392;-89
2021/07/11 01:37:40;;;;;;;7.13;6.23;;;;;;;17.62;69.73;96812.23;127872;1093;29078;-89
2021/07/11 01:40:14;;;;;;;6.98;6.28;;;;;;;17.46;70.15;96816.52;127924;1093;23341;-90
2021/07/11 01:42:46;;;;;;;6.60;6.00;;;;;;;17.32;70.57;96822.03;127854;1093;23662;-89
2021/07/11 01:45:18;;;;;;;8.23;5.75;;;;;;;17.31;70.73;96822.33;127899;1093;22851;-88
2021/07/11 01:47:50;;;;;;;6.50;5.10;;;;;;;17.39;70.29;96816.97;127885;1092;25124;-89
2021/07/11 01:50:22;;;;;;;7.43;5.90;;;;;;;17.48;70.67;96819.66;127841;1093;24261;-90
2021/07/11 01:52:55;;;;;;;7.45;5.73;;;;;;;17.53;70.36;96822.16;127859;1093;24913;-92
2021/07/11 01:55:28;;;;;;;7.55;6.05;;;;;;;17.42;70.20;96823.59;127864;1090;23693;-89
2021/07/11 01:58:00;;;;;;;7.10;6.40;;;;;;;17.47;70.28;96823.45;127856;1093;25907;-90
2021/07/11 02:00:31;;;;;;;7.90;6.08;;;;;;;17.48;70.16;96814.30;127861;1093;26302;-88
2021/07/11 02:03:03;;;;;;;7.58;6.43;;;;;;;17.38;70.42;96814.61;127843;1093;24115;-90
2021/07/11 02:05:35;;;;;;;7.78;6.98;;;;;;;17.18;70.75;96826.77;127862;1093;22840;-89
2021/07/11 02:08:07;;;;;;;6.75;6.05;;;;;;;17.04;71.36;96815.41;127874;1092;25996;-89
2021/07/11 02:10:39;;;;;;;7.45;6.25;;;;;;;16.96;71.56;96813.50;127900;1093;23209;-87
2021/07/11 02:13:18;;;;;;;6.83;6.13;;;;;;;16.88;72.00;96817.73;127923;1092;25792;-89
2021/07/11 02:15:51;;;;;;;8.40;7.60;;;;;;;16.82;72.44;96810.97;127920;1093;24392;-88
2021/07/11 02:18:26;;;;;;;9.45;6.85;;;;;;;16.80;72.70;96813.17;127864;1093;25259;-92
2021/07/11 02:20:59;;;;;;;7.98;7.18;;;;;;;16.80;72.94;96813.96;127881;1093;24134;-91
2021/07/11 02:23:35;;;;;;;7.35;6.40;;;;;;;16.87;73.14;96805.45;127875;1093;24886;-89
2021/07/11 02:26:07;;;;;;;8.15;6.43;;;;;;;16.95;72.95;96804.69;127885;1093;26246;-89
2021/07/11 02:28:39;;;;;;;8.10;6.13;;;;;;;17.07;73.03;96804.85;127893;1093;25565;-91
2021/07/11 02:31:12;;;;;;;6.70;5.90;;;;;;;17.23;72.82;96820.45;127971;1090;24967;-88
2021/07/11 02:33:45;;;;;;;7.73;6.30;;;;;;;17.33;72.15;96806.75;127938;1093;22929;-89
2021/07/11 02:36:21;;;;;;;7.60;6.10;;;;;;;17.37;71.96;96819.19;127888;1093;24389;-90
2021/07/11 02:38:58;;;;;;;9.28;7.50;;;;;;;17.36;71.84;96806.11;127857;1093;23645;-89
2021/07/11 02:41:31;;;;;;;8.23;6.58;;;;;;;17.45;71.74;96809.55;127883;1093;25057;-90
2021/07/11 02:44:07;;;;;;;8.40;6.88;;;;;;;17.46;71.60;96809.25;127860;1093;26392;-90
2021/07/11 02:46:43;;;;;;;7.45;6.38;;;;;;;17.49;71.52;96818.55;127887;1093;23385;-90
2021/07/11 02:49:19;;;;;;;7.80;6.40;;;;;;;17.46;71.52;96805.79;127931;1093;24363;-90
2021/07/11 02:51:54;;;;;;;8.35;6.40;;;;;;;17.45;71.48;96809.55;127883;1093;24396;-89
2021/07/11 02:54:30;;;;;;;7.93;6.83;;;;;;;17.44;71.42;96816.02;127862;1093;23663;-94
2021/07/11 02:57:05;;;;;;;8.85;7.15;;;;;;;17.41;71.75;96811.30;127845;1093;26292;-88
2021/07/11 02:59:38;;;;;;;8.70;7.10;;;;;;;17.49;71.83;96813.19;127856;1093;26264;-90
2021/07/11 03:02:11;;;;;;;9.08;7.15;;;;;;;17.44;71.38;96816.02;127889;1093;23298;-90
2021/07/11 03:04:45;;;;;;;8.33;7.13;;;;;;;17.39;71.37;96824.23;127930;1093;27307;-90
2021/07/11 03:07:17;;;;;;;6.95;6.25;;;;;;;17.30;71.75;96812.72;127894;1092;23313;-90
2021/07/11 03:09:48;;;;;;;7.25;6.20;;;;;;;17.26;72.00;96801.06;127872;1092;24381;-89
2021/07/11 03:12:21;;;;;;;7.30;6.40;;;;;;;17.30;72.20;96801.99;127881;1093;23213;-88
2021/07/11 03:14:54;;;;;;;7.20;6.50;;;;;;;17.22;72.38;96811.63;127849;1093;26293;-90
2021/07/11 03:17:27;;;;;;;8.25;6.93;;;;;;;17.31;72.57;96809.72;127860;1094;27312;-87
2021/07/11 03:19:59;;;;;;;7.50;6.70;;;;;;;17.42;72.60;96812.87;127850;1093;25195;-88
2021/07/11 03:22:34;;;;;;;9.98;8.00;;;;;;;17.46;72.78;96811.94;127876;1093;23689;-88
2021/07/11 03:25:11;;;;;;;8.45;7.08;;;;;;;17.46;72.74;96808.47;127972;1093;26898;-88
2021/07/11 03:27:43;;;;;;;10.20;7.18;;;;;;;17.27;72.55;96808.78;128012;1092;25790;-89
2021/07/11 03:30:20;;;;;;;8.38;6.60;;;;;;;17.28;73.17;96809.56;127992;1093;23055;-89
2021/07/11 03:32:55;;;;;;;7.73;6.88;;;;;;;17.09;72.82;96807.21;127867;1093;22821;-89
2021/07/11 03:35:36;;;;;;;8.70;7.50;;;;;;;17.18;73.33;96808.02;127935;1093;27016;-88
2021/07/11 03:38:10;;;;;;;8.50;7.50;;;;;;;17.27;73.57;96806.09;127910;1093;27044;-88
2021/07/11 03:40:46;;;;;;;7.70;6.53;;;;;;;17.30;73.59;96808.14;128002;1093;23089;-88
2021/07/11 03:43:22;;;;;;;8.28;7.25;;;;;;;17.32;73.76;96800.59;127896;1093;35796;-89
2021/07/11 03:45:58;;;;;;;7.85;7.05;;;;;;;17.47;73.98;96797.42;127912;1093;24969;-93
2021/07/11 03:48:33;;;;;;;9.25;7.38;;;;;;;17.43;74.07;96795.68;127938;1093;23154;-88
2021/07/11 03:51:08;;;;;;;7.33;6.63;;;;;;;17.27;73.77;96797.27;127903;1092;23479;-88
2021/07/11 03:53:41;;;;;;;9.60;6.60;;;;;;;17.37;74.49;96802.32;127941;1093;23232;-89
2021/07/11 03:56:12;;;;;;;7.85;7.05;;;;;;;17.48;74.69;96804.36;127946;1093;27126;-89
2021/07/11 03:58:46;;;;;;;7.38;6.48;;;;;;;17.43;74.40;96799.14;127953;1092;24998;-89
2021/07/11 04:01:23;;;;;;;7.65;6.90;;;;;;;17.57;74.70;96811.59;127936;1092;23168;-88
2021/07/11 04:03:57;;;;;;;7.68;6.53;;;;;;;17.58;74.22;96797.08;127940;1093;26700;-90
2021/07/11 04:06:32;;;;;;;6.65;5.98;;;;;;;17.59;74.78;96798.65;127954;1093;24929;-87
2021/07/11 04:09:06;;;;;;;7.33;6.35;;;;;;;17.56;74.59;96810.80;127880;1093;22839;-89
2021/07/11 04:11:38;;;;;;;9.00;7.08;;;;;;;17.55;74.40;96803.86;127888;1093;24711;-89
2021/07/11 04:14:09;;;;;;;6.93;6.23;;;;;;;17.73;75.04;96804.64;127860;1093;23616;-90
2021/07/11 04:16:44;;;;;;;8.30;6.98;;;;;;;17.80;74.81;96804.95;127922;1093;24414;-88
2021/07/11 04:19:21;;;;;;;6.88;6.18;;;;;;;17.93;75.66;96801.30;127937;1093;22819;-87
2021/07/11 04:21:54;;;;;;;7.58;6.65;;;;;;;18.07;75.66;96803.77;127857;1092;24252;-89
2021/07/11 04:24:26;;;;;;;8.35;6.28;;;;;;;18.30;76.07;96798.95;127868;1093;24343;-89
2021/07/11 04:26:59;;;;;;;6.10;5.38;;;;;;;18.60;76.49;96791.69;127889;1093;23969;-88
2021/07/11 04:29:33;;;;;;;7.68;6.43;;;;;;;18.91;76.30;96797.51;127906;1093;23456;-89
2021/07/11 04:32:06;;;;;;;7.80;6.53;;;;;;;19.22;76.27;96797.10;127875;1093;22791;-88
2021/07/11 04:34:39;;;;;;;7.40;6.15;;;;;;;19.51;76.03;96798.12;127881;1093;23861;-90
2021/07/11 04:37:11;;;;;;;8.50;6.23;;;;;;;19.77;75.74;96797.89;127925;1093;25691;-90
2021/07/11 04:39:43;;;;;;;6.70;5.90;;;;;;;19.94;75.03;96792.31;127926;1093;24119;-92
2021/07/11 04:42:15;;;;;;;5.73;5.10;;;;;;;20.06;74.53;96795.03;127952;1092;23599;-89
2021/07/11 04:44:47;;;;;;;6.68;5.75;;;;;;;20.21;74.79;96790.89;127837;1093;26016;-89
2021/07/11 04:47:20;;;;;;;8.30;6.20;;;;;;;20.48;74.47;96791.38;127823;1093;25694;-90
2021/07/11 04:49:51;;;;;;;9.65;6.10;;;;;;;20.78;73.99;96786.52;127872;1093;24803;-90
2021/07/11 04:52:23;;;;;;;8.58;6.35;;;;;;;20.98;73.33;96785.59;127885;1093;24292;-89
2021/07/11 04:54:55;;;;;;;7.28;5.75;;;;;;;21.03;72.79;96788.05;127851;1093;24069;-89
2021/07/11 04:57:26;;;;;;;8.98;5.48;;;;;;;21.01;72.64;96779.52;127986;1093;24490;-88
2021/07/11 04:59:57;;;;;;;11.35;6.23;;;;;;;21.03;72.09;96786.13;128063;1093;24624;-89
2021/07/11 05:02:29;;;;;;;8.65;5.68;;;;;;;21.10;72.25;96785.53;128114;1093;22816;-88
2021/07/11 05:05:03;;;;;;;9.78;6.05;;;;;;;21.23;72.09;96780.89;127920;1093;27429;-90
2021/07/11 05:07:34;;;;;;;9.03;6.43;;;;;;;21.42;72.03;96780.31;127912;1093;24399;-94
2021/07/11 05:10:07;;;;;;;7.10;5.90;;;;;;;21.68;71.80;96779.82;127894;1093;23511;-91
2021/07/11 05:12:39;;;;;;;7.70;5.73;;;;;;;21.91;71.48;96775.42;127840;1093;23676;-90
2021/07/11 05:15:12;;;;;;;6.30;5.28;;;;;;;22.23;70.75;96776.23;127869;1093;23583;-91
2021/07/11 05:17:44;;;;;;;7.58;5.00;;;;;;;22.88;70.58;96773.89;127929;1093;22786;-94
2021/07/11 05:20:16;;;;;;;6.85;5.53;;;;;;;24.25;70.20;96768.76;127873;1093;22952;-86
2021/07/11 05:22:48;;;;;;;7.55;5.80;;;;;;;25.86;68.10;96777.09;127859;1093;26400;-90
2021/07/11 05:25:19;;;;;;;5.75;4.80;;;;;;;27.33;65.64;96774.27;127913;1093;24437;-90
2021/07/11 05:27:51;;;;;;;6.48;4.78;;;;;;;28.45;62.57;96768.64;127880;1093;25137;-90
2021/07/11 05:30:23;;;;;;;6.65;4.93;;;;;;;29.20;59.09;96768.48;127869;1093;25150;-88
2021/07/11 05:32:54;;;;;;;6.15;4.60;;;;;;;29.55;58.39;96768.34;127875;1093;27298;-90
2021/07/11 05:35:26;;;;;;;5.18;4.65;;;;;;;29.94;56.52;96770.06;127882;1093;26479;-88
2021/07/11 05:37:57;;;;;;;5.25;4.70;;;;;;;30.28;55.73;96769.47;127867;1093;26255;-89
2021/07/11 05:40:29;;;;;;;5.38;4.68;;;;;;;30.56;54.41;96769.22;127895;1093;22851;-89
2021/07/11 05:43:00;;;;;;;5.88;4.48;;;;;;;30.85;53.45;96768.97;127901;1093;23288;-91
2021/07/11 05:45:32;;;;;;;4.70;4.25;;;;;;;31.07;52.84;96770.27;127872;1093;22854;-90
2021/07/11 05:48:03;;;;;;;6.40;4.50;;;;;;;31.35;50.99;96766.44;127867;1093;26284;-96
2021/07/11 05:50:35;;;;;;;6.55;4.30;;;;;;;31.76;50.47;96780.02;127822;1093;53022;-92
2021/07/11 05:53:10;;;;;;;4.53;3.93;;;;;;;32.26;49.66;96775.77;127855;1093;34213;-93
2021/07/11 05:55:42;;;;;;;6.35;3.88;;;;;;;32.96;48.95;96773.80;128349;1089;87000;-96
2021/07/11 05:58:14;;;;;;;4.48;4.08;;;;;;;33.52;46.81;96773.88;128220;1093;57978;-95
2021/07/11 06:00:46;;;;;;;4.50;3.80;;;;;;;33.46;45.53;96769.29;127839;1090;42700;-94
2021/07/11 06:03:18;;;;;;;4.20;3.80;;;;;;;33.65;46.20;96758.27;128066;1093;43345;-96
2021/07/11 06:05:50;;;;;;;4.20;3.48;;;;;;;34.31;45.41;96766.59;128026;1093;65088;-96
2021/07/11 06:08:22;;;;;;;5.40;3.73;;;;;;;34.79;44.37;96763.04;127960;1093;37757;-96
2021/07/11 06:10:55;;;;;;;5.00;3.65;;;;;;;34.80;43.42;96767.34;127811;1093;43189;-92
2021/07/11 06:13:27;;;;;;;4.18;3.73;;;;;;;34.84;42.65;96759.75;128040;1093;32492;-94
2021/07/11 06:15:58;;;;;;;4.00;3.40;;;;;;;34.67;42.17;96761.00;127944;1090;32442;-95
2021/07/11 06:18:30;;;;;;;6.35;3.35;;;;;;;34.63;42.27;96763.05;127846;1093;33902;-94
2021/07/11 06:21:01;;;;;;;4.25;3.85;;;;;;;34.01;41.90;96760.23;127842;1093;40314;-94
2021/07/11 06:23:33;;;;;;;6.10;3.85;;;;;;;34.45;42.59;96758.01;127914;1090;71184;-94
2021/07/11 06:26:05;;;;;;;6.68;3.50;;;;;;;35.33;41.44;96757.63;127875;1093;51342;-95
2021/07/11 06:28:37;;;;;;;4.68;3.38;;;;;;;34.86;40.73;96754.59;127875;1093;77520;-95
2021/07/11 06:31:09;;;;;;;4.20;3.35;;;;;;;35.57;40.47;96757.34;127968;1093;43472;-95
2021/07/11 06:33:41;;;;;;;4.00;3.60;;;;;;;34.01;38.82;96751.20;127981;1093;64841;-95
2021/07/11 06:36:12;;;;;;;3.35;3.03;;;;;;;34.29;40.73;96752.49;128069;1090;35514;-95
2021/07/11 06:38:44;;;;;;;5.85;3.50;;;;;;;35.44;40.93;96762.06;128033;1093;47638;-95
2021/07/11 06:41:16;;;;;;;4.55;3.28;;;;;;;34.67;37.21;96753.51;127893;1093;58634;-95
2021/07/11 06:43:48;;;;;;;3.18;2.88;;;;;;;34.43;39.80;96749.41;127999;1092;47967;-96
2021/07/11 06:46:19;;;;;;;3.60;2.93;;;;;;;35.76;37.88;96752.84;128058;1093;43508;-96
2021/07/11 06:48:51;;;;;;;3.98;3.40;;;;;;;36.14;37.75;96739.80;128072;1093;67356;-95
2021/07/11 06:51:26;;;;;;;3.53;2.97;;;;;;;37.58;37.62;96737.14;127879;1093;44585;-96
2021/07/11 06:54:00;;;;;;;3.70;3.30;;;;;;;37.53;34.29;96737.74;128037;1092;90962;-95
2021/07/11 06:56:31;;;;;;;3.55;3.25;;;;;;;38.10;35.12;96729.98;127850;1093;115966;-89
2021/07/11 06:59:03;;;;;;;3.50;3.07;;;;;;;38.70;34.63;96746.12;127902;1093;22927;-90
2021/07/11 07:01:35;;;;;;;3.55;3.25;;;;;;;37.87;32.21;96730.55;127933;1092;23581;-90
2021/07/11 07:04:06;;;;;;;3.93;3.30;;;;;;;38.33;34.66;96733.45;127900;1093;25388;-89
2021/07/11 07:06:38;;;;;;;3.77;3.37;;;;;;;39.28;33.26;96744.42;127909;1091;24388;-92
2021/07/11 07:09:09;;;;;;;4.13;3.08;;;;;;;39.40;33.41;96740.67;127951;1091;41893;-94
2021/07/11 07:11:41;;;;;;;4.03;3.15;;;;;;;39.78;32.08;96742.89;127923;1093;26685;-92
2021/07/11 07:14:12;;;;;;;3.85;3.28;;;;;;;39.97;32.47;96733.25;127883;1093;25510;-90
2021/07/11 07:16:44;;;;;;;4.07;2.80;;;;;;;41.17;29.48;96736.73;127914;1093;24956;-92
2021/07/11 07:19:15;;;;;;;3.80;3.33;;;;;;;39.82;30.04;96749.03;127915;1093;28528;-91
2021/07/11 07:21:46;;;;;;;3.40;3.13;;;;;;;39.44;30.19;96741.30;127850;1093;24334;-90
2021/07/11 07:24:18;;;;;;;3.23;2.90;;;;;;;40.29;31.04;96736.48;127844;1092;25804;-89
2021/07/11 07:26:49;;;;;;;6.35;2.95;;;;;;;41.64;30.42;96737.79;127869;1093;25431;-91
2021/07/11 07:29:20;;;;;;;3.35;3.15;;;;;;;42.37;26.49;96739.67;127877;1092;22792;-91
2021/07/11 07:31:52;;;;;;;3.55;3.23;;;;;;;41.89;28.52;96741.23;127906;1093;23625;-93
2021/07/11 07:34:23;;;;;;;3.60;3.28;;;;;;;41.27;28.15;96740.23;127859;1093;26239;-89
2021/07/11 07:36:58;;;;;;;3.55;3.25;;;;;;;40.53;27.09;96745.59;127885;1093;23405;-94
2021/07/11 07:39:31;;;;;;;3.08;2.78;;;;;;;40.05;30.21;96747.58;127869;1093;22860;-89
2021/07/11 07:42:02;;;;;;;3.03;2.77;;;;;;;40.79;27.62;96748.64;127868;1092;24405;-90
2021/07/11 07:44:34;;;;;;;3.60;3.30;;;;;;;40.01;28.63;96747.75;127858;1093;23903;-92
2021/07/11 07:47:07;;;;;;;4.77;3.13;;;;;;;39.76;29.39;96737.81;127917;1093;24273;-90
2021/07/11 07:49:38;;;;;;;4.70;3.30;;;;;;;41.06;27.76;96747.66;127892;1093;24367;-90
2021/07/11 07:52:10;;;;;;;3.43;3.10;;;;;;;41.54;29.02;96739.16;127916;1093;23081;-90
2021/07/11 07:54:41;;;;;;;5.05;3.35;;;;;;;42.14;27.75;96743.41;127904;1092;24677;-91
2021/07/11 07:57:12;;;;;;;4.78;3.13;;;;;;;41.61;27.06;96737.99;127929;1093;23499;-91
2021/07/11 07:59:44;;;;;;;4.05;3.75;;;;;;;41.46;27.04;96740.80;127975;1093;24062;-90
2021/07/11 08:02:16;;;;;;;4.88;3.28;;;;;;;41.32;27.16;96730.44;127959;1093;28346;-91
2021/07/11 08:04:47;;;;;;;4.03;3.05;;;;;;;40.24;26.59;96735.11;127949;1093;22774;-89
2021/07/11 08:07:24;;;;;;;4.18;3.20;;;;;;;38.89;28.48;96725.50;127923;1093;27321;-89
2021/07/11 08:09:55;;;;;;;4.28;3.53;;;;;;;39.18;29.27;96721.48;127891;1093;22841;-90
2021/07/11 08:12:27;;;;;;;3.60;3.30;;;;;;;39.70;29.18;96727.83;127998;1092;27372;-90
2021/07/11 08:14:58;;;;;;;5.20;3.83;;;;;;;40.29;29.41;96728.16;127901;1093;35200;-91
2021/07/11 08:17:29;;;;;;;4.45;3.65;;;;;;;41.19;28.59;96720.33;127885;1093;24910;-92
2021/07/11 08:20:01;;;;;;;4.40;3.63;;;;;;;41.65;25.90;96724.63;127887;1093;29168;-93
2021/07/11 08:22:33;;;;;;;4.60;4.20;;;;;;;41.33;28.02;96732.73;127886;1093;29772;-90
2021/07/11 08:25:05;;;;;;;5.03;3.70;;;;;;;41.79;26.55;96723.87;127874;1093;28694;-90
2021/07/11 08:27:37;;;;;;;8.30;4.23;;;;;;;40.70;25.74;96740.39;127858;1092;34642;-90
2021/07/11 08:30:12;;;;;;;4.88;4.38;;;;;;;39.05;27.66;96738.26;127846;1093;26130;-90
2021/07/11 08:32:45;;;;;;;5.13;4.28;;;;;;;39.41;29.11;96737.42;127988;1093;25099;-90
2021/07/11 08:35:17;;;;;;;5.00;4.00;;;;;;;39.38;28.46;96737.59;127878;1093;25320;-89
2021/07/11 08:37:48;;;;;;;5.98;5.20;;;;;;;39.44;28.41;96739.29;127917;1093;23278;-91
2021/07/11 08:40:20;;;;;;;6.43;4.85;;;;;;;39.11;29.68;96730.10;127871;1093;24742;-91
2021/07/11 08:42:54;;;;;;;6.38;5.08;;;;;;;38.45;29.77;96732.55;127906;1093;27676;-91
2021/07/11 08:45:25;;;;;;;7.58;5.30;;;;;;;37.47;30.00;96731.27;127898;1093;25254;-90
2021/07/11 08:47:57;;;;;;;5.40;4.90;;;;;;;37.45;30.35;96728.19;127906;1093;26453;-89
2021/07/11 08:50:29;;;;;;;5.65;4.68;;;;;;;35.65;32.13;96733.86;127908;1093;30912;-89
2021/07/11 08:53:01;;;;;;;6.73;5.57;;;;;;;34.64;33.69;96731.58;127919;1093;32779;-89
2021/07/11 08:55:33;;;;;;;7.18;5.03;;;;;;;34.08;34.65;96724.30;127973;1093;24304;-91
2021/07/11 08:58:05;;;;;;;5.70;5.15;;;;;;;33.17;35.65;96739.63;127914;1093;29542;-90
2021/07/11 09:00:40;;;;;;;9.03;5.13;;;;;;;31.52;38.07;96729.02;127846;1092;272187;-91
2021/07/11 09:03:13;;;;;;;6.53;5.43;;;;;;;31.39;39.19;96736.25;128110;1092;26979;-90
2021/07/11 09:05:44;;;;;;;8.38;5.28;;;;;;;31.52;39.95;96727.06;128120;1093;29439;-90
2021/07/11 09:08:23;;;;;;;6.90;5.33;;;;;;;31.78;39.72;96735.73;127865;1093;25216;-92
2021/07/11 09:10:57;;;;;;;7.68;5.93;;;;;;;31.14;40.36;96731.86;127822;1093;26924;-95
2021/07/11 09:13:31;;;;;;;9.25;6.10;;;;;;;31.15;40.61;96729.89;127879;1092;26027;-90
2021/07/11 09:16:03;;;;;;;6.13;5.33;;;;;;;31.20;41.12;96729.45;127871;1093;26519;-96
2021/07/11 09:18:35;;;;;;;6.48;5.78;;;;;;;30.89;41.22;96743.09;127844;1093;26517;-91
2021/07/11 09:21:11;;;;;;;6.60;5.93;;;;;;;29.57;42.87;96729.72;127836;1092;29141;-91
2021/07/11 09:23:43;;;;;;;6.55;5.43;;;;;;;28.98;45.06;96730.33;127914;1093;28809;-92
2021/07/11 09:26:16;;;;;;;7.35;5.90;;;;;;;28.91;45.79;96729.59;127914;1093;26946;-92
2021/07/11 09:28:51;;;;;;;8.05;6.10;;;;;;;28.97;46.22;96725.27;127871;1093;25039;-89
2021/07/11 09:31:24;;;;;;;8.08;6.40;;;;;;;28.90;46.55;96722.58;127883;1093;24773;-92
2021/07/11 09:34:00;;;;;;;9.93;6.00;;;;;;;28.74;46.99;96727.67;127852;1093;26255;-90
2021/07/11 09:36:31;;;;;;;7.30;6.60;;;;;;;28.31;47.24;96730.48;127846;1092;28992;-96
2021/07/11 09:39:04;;;;;;;7.95;6.43;;;;;;;28.27;47.91;96719.55;127858;1092;25024;-92
2021/07/11 09:41:37;;;;;;;7.58;6.08;;;;;;;28.42;48.07;96724.98;127863;1093;24544;-92
2021/07/11 09:44:09;;;;;;;7.08;6.28;;;;;;;28.27;48.44;96727.73;127891;1093;24598;-91
2021/07/11 09:46:40;;;;;;;7.13;5.93;;;;;;;28.15;49.57;96730.04;127836;1093;24934;-91
2021/07/11 09:49:20;;;;;;;6.83;6.03;;;;;;;28.19;49.32;96728.89;127942;1093;26881;-90
2021/07/11 09:51:52;;;;;;;6.43;5.83;;;;;;;28.47;49.29;96733.57;127884;1093;24296;-91
2021/07/11 09:54:26;;;;;;;6.98;6.25;;;;;;;28.58;48.85;96734.34;127886;1092;23613;-90
2021/07/11 09:56:57;;;;;;;7.65;6.85;;;;;;;28.48;48.88;96734.34;127849;1093;27414;-88
2021/07/11 09:59:34;;;;;;;6.90;6.00;;;;;;;28.73;49.17;96737.81;127859;1093;25230;-90
2021/07/11 10:02:05;;;;;;;9.00;6.83;;;;;;;28.82;49.08;96746.34;127899;1092;24162;-89
2021/07/11 10:04:38;;;;;;;8.88;6.43;;;;;;;28.97;49.71;96745.16;127878;1093;23838;-89
2021/07/11 10:07:09;;;;;;;6.78;6.08;;;;;;;29.47;49.37;96741.47;127899;1093;22794;-91
2021/07/11 10:09:42;;;;;;;7.30;6.15;;;;;;;29.83;49.04;96742.02;127872;1093;26630;-90
2021/07/11 10:12:14;;;;;;;6.95;6.10;;;;;;;30.04;47.93;96747.34;127944;1093;22845;-89
2021/07/11 10:14:46;;;;;;;7.50;6.70;;;;;;;29.87;46.77;96750.22;127925;1093;23839;-90
2021/07/11 10:17:19;;;;;;;6.95;5.78;;;;;;;29.64;47.74;96739.81;127894;1093;28790;-91
2021/07/11 10:19:54;;;;;;;7.80;7.05;;;;;;;29.62;47.41;96739.44;127878;1092;27137;-90
2021/07/11 10:22:26;;;;;;;9.90;7.28;;;;;;;29.59;47.20;96745.70;127862;1092;24582;-91
2021/07/11 10:24:59;;;;;;;8.30;6.50;;;;;;;29.31;47.40;96731.00;127869;1093;23525;-91
2021/07/11 10:27:31;;;;;;;6.50;5.85;;;;;;;28.84;48.71;96727.63;127868;1093;28563;-91
2021/07/11 10:30:02;;;;;;;6.95;6.25;;;;;;;28.79;49.17;96729.98;127873;1093;28551;-90
2021/07/11 10:32:35;;;;;;;7.15;6.33;;;;;;;28.95;49.48;96727.63;127809;1093;40057;-93
2021/07/11 10:35:19;;;;;;;7.35;6.18;;;;;;;29.16;49.33;96724.05;127864;1093;28881;-90
2021/07/11 10:37:54;;;;;;;7.03;6.33;;;;;;;28.59;49.12;96735.11;127897;1093;29619;-90
2021/07/11 10:40:33;;;;;;;7.30;6.53;;;;;;;28.01;49.51;96726.17;127894;1093;24042;-89
2021/07/11 10:43:15;;;;;;;6.80;6.10;;;;;;;28.16;50.26;96721.50;127898;1093;23827;-90
2021/07/11 10:45:49;;;;;;;7.00;6.30;;;;;;;28.46;51.25;96728.52;127928;1093;31882;-87
2021/07/11 10:48:31;;;;;;;8.00;6.55;;;;;;;28.56;50.29;96719.52;127846;1093;28195;-90
2021/07/11 10:51:04;;;;;;;10.90;6.77;;;;;;;28.55;51.07;96709.77;127856;1092;33750;-94
2021/07/11 10:53:39;;;;;;;6.93;6.23;;;;;;;28.76;50.92;96707.00;127938;1093;43092;-95
2021/07/11 10:56:21;;;;;;;7.35;5.98;;;;;;;29.05;51.47;96710.44;127996;1093;48598;-90
2021/07/11 10:58:53;;;;;;;6.90;5.98;;;;;;;29.30;51.13;96704.86;127985;1093;56547;-91
2021/07/11 11:01:26;;;;;;;8.60;5.88;;;;;;;29.51;50.67;96704.75;127912;1093;37510;-92
2021/07/11 11:03:58;;;;;;;7.00;6.30;;;;;;;29.46;50.18;96704.38;127860;1093;26990;-92
2021/07/11 11:06:40;;;;;;;7.50;5.83;;;;;;;29.38;50.53;96703.63;127818;1093;41091;-94
2021/07/11 11:09:11;;;;;;;6.70;6.00;;;;;;;29.11;51.13;96697.91;127916;1093;31130;-96
2021/07/11 11:11:43;;;;;;;6.30;5.70;;;;;;;29.08;51.46;96693.25;127915;1093;30901;-92
2021/07/11 11:14:16;;;;;;;9.35;6.35;;;;;;;28.98;51.10;96694.07;127863;1093;47068;-90
2021/07/11 11:16:49;;;;;;;7.75;6.58;;;;;;;28.72;51.18;96711.70;127826;1093;62682;-91
2021/07/11 11:19:24;;;;;;;7.63;6.25;;;;;;;28.46;51.45;96710.20;127877;1093;24460;-90
2021/07/11 11:22:00;;;;;;;8.85;6.78;;;;;;;28.21;51.59;96723.83;127923;1093;27086;-90
2021/07/11 11:24:31;;;;;;;8.60;6.43;;;;;;;27.97;51.78;96738.23;127830;1093;48170;-90
2021/07/11 11:27:03;;;;;;;7.45;6.60;;;;;;;27.62;52.28;96739.72;127854;1093;26788;-90
2021/07/11 11:29:34;;;;;;;8.38;7.23;;;;;;;27.35;53.01;96731.09;127895;1093;25490;-90
2021/07/11 11:32:14;;;;;;;11.45;7.40;;;;;;;27.29;53.29;96743.50;127804;1093;24652;-89
2021/07/11 11:34:51;;;;;;;7.18;6.45;;;;;;;27.16;53.32;96734.89;127913;1093;43887;-89
2021/07/11 11:37:22;;;;;;;10.45;7.00;;;;;;;26.81;53.76;96748.33;127932;1093;25155;-90
2021/07/11 11:40:04;;;;;;;8.88;7.98;;;;;;;26.61;54.31;96754.05;127831;1093;28573;-89
2021/07/11 11:42:36;;;;;;;9.48;7.68;;;;;;;26.43;54.91;96764.01;127832;1093;24741;-94
2021/07/11 11:45:11;;;;;;;8.90;7.80;;;;;;;26.19;55.68;96759.16;127919;1093;24083;-90
2021/07/11 11:47:44;;;;;;;9.58;7.63;;;;;;;26.09;56.17;96757.13;127960;1093;25101;-90
2021/07/11 11:50:20;;;;;;;8.93;8.03;;;;;;;26.20;56.21;96752.56;127951;1093;25698;-90